Home > Products > Valid Products > TAF

000
FTUS45 KABQ 262100 AAA
TAFTCC
TAF AMD
KTCC 262128Z 2621/2718 07011KT P6SM OVC018
     FM270100 11013KT 4SM BR OVC015
     FM270600 12011KT 2SM -SN BR OVC015
     FM271700 14013KT P6SM VCSH OVC025=



000
FTUS45 KABQ 262100 AAG
TAFLVS
TAF AMD
KLVS 262126Z 2621/2718 16017KT 3SM BR OVC003
     FM270200 14015KT 3/4SM -SN BR OVC007
     FM271600 18016KT 3SM -SN BR OVC012=



000
FTUS45 KABQ 262100 AAF
TAFLVS
TAF AMD
KLVS 262104Z 2621/2718 16017KT 4SM BR BKN007 OVC015
     FM270200 14015KT 3/4SM -SN BR OVC007
     FM271600 18016KT 3SM -SN BR OVC012=



000
FTUS45 KABQ 262100 AAA
TAFSAF
TAF AMD
KSAF 262102Z 2621/2718 15015G25KT P6SM VCSH OVC020
     FM270300 15020G30KT P6SM VCSH BKN020
     FM270700 15014KT 2SM -SN OVC007
     FM271400 16010KT P6SM VCSH OVC025=



000
FTUS45 KABQ 262100 AAB
TAFGUP
TAF AMD
KGUP 262100Z 2621/2718 25010KT P6SM SCT060 BKN120
     FM270100 VRB04KT P6SM VCSH OVC050
      TEMPO 2702/2706 4SM -SN BR OVC025
     FM270600 VRB03KT 3SM -SN BR OVC015
     FM271600 23008KT P6SM OVC080=



000
FTUS45 KABQ 262000 AAD
TAFLVS
TAF AMD
KLVS 262059Z 2621/2718 15015KT 4SM -SN BR BKN010 OVC015
     FM262100 16017KT 4SM BR OVC015
     FM270200 14015KT 3/4SM -SN BR OVC007
     FM271600 18016KT 3SM -SN BR OVC012=



000
FTUS45 KABQ 262000 AAC
TAFLVS
TAF AMD
KLVS 262004Z 2620/2718 15015KT 4SM -SN BR FEW008 BKN030
     FM262100 16018G28KT 4SM -SHSN BR OVC020
     FM270200 14015KT 3/4SM -SN BR OVC007
     FM271600 18016KT 3SM -SN BR OVC012=



000
FTUS45 KABQ 262000 AAA
TAFGUP
TAF AMD
KGUP 262002Z 2620/2718 VRB03KT P6SM BKN200
     FM262100 25012G25KT P6SM SCT060 BKN120
     FM270100 VRB04KT P6SM VCSH OVC050
      TEMPO 2702/2706 4SM -SN BR OVC025
     FM270600 VRB03KT 3SM -SN BR OVC015
     FM271600 23008KT P6SM OVC080=



000
FTUS45 KABQ 262000 AAA
TAFGUP
TAF AMD
KGUP 262002Z 2620/2718 VRB03KT P6SM BKN200
     FM262100 25012G25KT P6SM SCT060 BKN120
     FM270100 VRB04KT P6SM VCSH OVC050
      TEMPO 2702/2706 4SM -SN BR OVC025
     FM270600 VRB03KT 3SM -SN BR OVC015
     FM271600 23008KT P6SM OVC080=



000
FTUS45 KABQ 262000 AAB
TAFLVS
TAF AMD
KLVS 262001Z 2620/2718 15015KT 4SM -SN BR SCT005 BKN035
     FM262100 16018G28KT 4SM -SHSN BR OVC020
     FM270200 14015KT 3/4SM -SN BR OVC007
     FM271600 18016KT 3SM -SN BR OVC012=



000
FTUS45 KABQ 262000 AAB
TAFLVS
TAF AMD
KLVS 262001Z 2620/2718 15015KT 4SM -SN BR SCT005 BKN035
     FM262100 16018G28KT 4SM -SHSN BR OVC020
     FM270200 14015KT 3/4SM -SN BR OVC007
     FM271600 18016KT 3SM -SN BR OVC012=



000
FTUS45 KABQ 261800 AAA
TAFLVS
TAF AMD
KLVS 261832Z 2619/2718 15015KT 4SM -SN BR SCT005 BKN035
      TEMPO 2619/2621 1SM -SN OVC008
     FM262100 16018G28KT 4SM -SHSN BR OVC020
     FM270200 14015KT 3/4SM -SN BR OVC007
     FM271600 18016KT 3SM -SN BR OVC012=



000
FTUS45 KABQ 261700 RRA
TAFFMN
TAF
KFMN 261751Z 2618/2718 VRB04KT P6SM BKN200
     FM262100 26008KT P6SM VCSH SCT050 BKN100
     FM270000 08005KT P6SM VCSH OVC040
     FM270300 07005KT 3SM -SN BR OVC015
     FM270900 13002KT 4SM BR OVC001
     FM271700 12006KT P6SM OVC070=



000
FTUS45 KABQ 261700 RRA
TAFLVS
TAF
KLVS 261751Z 2618/2718 15015KT 3SM -SN BR OVC015
      TEMPO 2618/2621 1SM -SN OVC008
     FM262100 16018G28KT 4SM -SHSN BR OVC020
     FM270200 14015KT 3/4SM -SN BR OVC007
     FM271600 18016KT 3SM -SN BR OVC012=



000
FTUS45 KABQ 261700 RRA
TAFFMN
TAF
KFMN 261751Z 2618/2718 VRB04KT P6SM BKN200
     FM262100 26008KT P6SM VCSH SCT050 BKN100
     FM270000 08005KT P6SM VCSH OVC040
     FM270300 07005KT 3SM -SN BR OVC015
     FM270900 13002KT 4SM BR OVC001
     FM271700 12006KT P6SM OVC070=



000
FTUS45 KABQ 261700 RRA
TAFLVS
TAF
KLVS 261751Z 2618/2718 15015KT 3SM -SN BR OVC015
      TEMPO 2618/2621 1SM -SN OVC008
     FM262100 16018G28KT 4SM -SHSN BR OVC020
     FM270200 14015KT 3/4SM -SN BR OVC007
     FM271600 18016KT 3SM -SN BR OVC012=



000
FTUS45 KABQ 261700 RRA
TAFSAF
TAF
KSAF 261751Z 2618/2718 15015G25KT P6SM VCSH SCT025 OVC050
      TEMPO 2618/2621 BKN020
     FM270300 15020G30KT P6SM VCSH BKN020
     FM270700 15014KT 2SM -SN OVC007
     FM271400 16010KT P6SM VCSH OVC025=



000
FTUS45 KABQ 261700 RRA
TAFROW
TAF
KROW 261751Z 2618/2718 07011KT P6SM VCSH OVC025
     FM262300 12011KT P6SM OVC020
     FM270900 11009KT 4SM -SN BR OVC025
     FM271500 13009KT 2SM BR OVC015=



000
FTUS45 KABQ 261700 RRA
TAFTCC
TAF
KTCC 261751Z 2618/2718 07011KT 4SM -SN BR SCT015 OVC035
      TEMPO 2618/2620 2SM -SN BKN015
     FM262000 10011KT P6SM VCSH OVC025
     FM270100 11013KT 4SM BR OVC015
     FM270600 12011KT 2SM -SN BR OVC015
     FM271700 14013KT P6SM VCSH OVC025=



000
FTUS45 KABQ 261700 RRA
TAFABQ
TAF
KABQ 261751Z 2618/2718 09014G22KT P6SM SCT060 BKN120
     FM262100 12013G22KT P6SM SCT040 OVC080
     FM270100 10023G33KT P6SM VCSH SCT035 OVC060
      TEMPO 2702/2706 3SM -SN BR OVC025
     FM270600 09015G23KT 2SM -SN BR OVC020
     FM271000 09015KT P6SM VCSH OVC040=



000
FTUS45 KABQ 261700 RRA
TAFGUP
TAF
KGUP 261751Z 2618/2718 VRB03KT P6SM BKN200
     FM261900 25012G20KT P6SM SCT060 BKN120
     FM270100 VRB04KT P6SM VCSH OVC050
      TEMPO 2702/2706 4SM -SN BR OVC025
     FM270600 VRB03KT 3SM -SN BR OVC015
     FM271600 23008KT P6SM OVC080=



000
FTUS45 KABQ 261600 AAB
TAFROW
TAF AMD
KROW 261601Z 2616/2712 07011KT P6SM OVC035
     FM262300 12011KT P6SM BKN040
     FM270600 13010KT P6SM VCSH OVC025=



000
FTUS45 KABQ 261500 AAC
TAFTCC
TAF AMD
KTCC 261547Z 2616/2712 08013KT 2SM -SN BR OVC015
     FM261700 08011KT 4SM -SN BR OVC015
     FM261800 11010KT P6SM VCSH OVC025
     FM270200 12013KT 4SM -SN BR OVC015
     FM270600 12012KT 2SM -SN BR OVC009=



000
FTUS45 KABQ 261500 AAA
TAFROW
TAF AMD
KROW 261529Z 2615/2712 04013KT P6SM VCSH OVC025
     FM261900 07011KT P6SM OVC035
     FM262300 12011KT P6SM BKN040
     FM270600 13010KT P6SM VCSH OVC025=



000
FTUS45 KABQ 261500 AAA
TAFROW
TAF AMD
KROW 261529Z 2615/2712 04013KT P6SM VCSH OVC025
     FM261900 07011KT P6SM OVC035
     FM262300 12011KT P6SM BKN040
     FM270600 13010KT P6SM VCSH OVC025=



000
FTUS45 KABQ 261500 AAB
TAFTCC
TAF AMD
KTCC 261527Z 2615/2712 09013KT 1SM -SN BR OVC015
     FM261700 08011KT 4SM -SN BR OVC015
     FM261800 11010KT P6SM VCSH OVC025
     FM270200 12013KT 4SM -SN BR OVC015
     FM270600 12012KT 2SM -SN BR OVC009=



000
FTUS45 KABQ 261500 AAB
TAFTCC
TAF AMD
KTCC 261527Z 2615/2712 09013KT 1SM -SN BR OVC015
     FM261700 08011KT 4SM -SN BR OVC015
     FM261800 11010KT P6SM VCSH OVC025
     FM270200 12013KT 4SM -SN BR OVC015
     FM270600 12012KT 2SM -SN BR OVC009=



000
FTUS45 KABQ 261500 AAB
TAFLVS
TAF AMD
KLVS 261523Z 2615/2712 06010KT 3SM -SN BR BKN025 OVC035
     FM261700 15015KT 1SM -SN BR OVC015
     FM262000 16020G30KT 4SM -SHSN BR OVC020
     FM270200 14015KT 1SM -SN BR OVC009
      TEMPO 2704/2708 1/2SM FZFG OVC004=



000
FTUS45 KABQ 261500 AAA
TAFLVS
TAF AMD
KLVS 261522Z 2615/2712 06010KT 2SM -SN BR SCT007 OVC035
     FM261700 15015KT 1SM -SN BR OVC015
     FM262000 16020G30KT 4SM -SHSN BR OVC020
     FM270200 14015KT 1SM -SN BR OVC009
      TEMPO 2704/2708 1/2SM FZFG OVC004=



000
FTUS45 KABQ 261500 AAA
TAFSAF
TAF AMD
KSAF 261512Z 2615/2712 17018KT P6SM BKN035 OVC050
     FM261900 16014G23KT P6SM VCSH SCT035 BKN070
     FM270100 14018G26KT 2SM -SN OVC015
     FM270400 15015KT 1SM -SN BR OVC006=



000
FTUS45 KABQ 261300 AAA
TAFTCC
TAF AMD
KTCC 261347Z 2614/2712 06014KT P6SM SCT015 OVC050
      TEMPO 2614/2616 3SM -SN BR OVC009
     FM261600 08011KT 4SM -SN BR OVC015
     FM261800 11010KT P6SM VCSH OVC025
     FM270200 12013KT 4SM -SN BR OVC015
     FM270600 12012KT 2SM -SN BR OVC009=



000
FTUS45 KABQ 261100
TAFTCC
TAF
KTCC 261136Z 2612/2712 07010G18KT P6SM SCT015 OVC025
      TEMPO 2612/2615 2SM -SN BR OVC005
     FM261500 08011KT 4SM -SN BR OVC015
     FM261800 11010KT P6SM VCSH OVC025
     FM270200 12013KT 4SM -SN BR OVC015
     FM270600 12012KT 2SM -SN BR OVC009=



000
FTUS45 KABQ 261100
TAFABQ
TAF
KABQ 261136Z 2612/2712 08010KT P6SM BKN200
     FM261600 09014G22KT P6SM SCT060 BKN120
     FM262100 12013G22KT P6SM SCT040 OVC080
     FM270100 10022G30KT P6SM VCSH SCT035 OVC060
      TEMPO 2702/2706 3SM -SN BR OVC025
     FM270600 09015G23KT 1SM -SN BR OVC010=



000
FTUS45 KABQ 261100
TAFSAF
TAF
KSAF 261136Z 2612/2712 17008KT P6SM BKN035 OVC050
     FM261900 16014G23KT P6SM VCSH SCT035 BKN070
     FM270100 14018G26KT 2SM -SN OVC015
     FM270400 15015KT 1SM -SN BR OVC006=



000
FTUS45 KABQ 261100
TAFGUP
TAF
KGUP 261136Z 2612/2712 VRB03KT P6SM BKN200
     FM261900 25012G20KT P6SM SCT060 BKN120
     FM270100 VRB04KT P6SM VCSH OVC050
      TEMPO 2701/2704 4SM -SN BR OVC025
     FM270400 VRB03KT 3SM -SN BR OVC015=



000
FTUS45 KABQ 261100
TAFROW
TAF
KROW 261136Z 2612/2712 01015G22KT P6SM VCSH OVC025
     FM261900 07011KT P6SM OVC035
     FM262300 12011KT P6SM BKN040
     FM270600 13010KT P6SM VCSH OVC025=



000
FTUS45 KABQ 261100
TAFFMN
TAF
KFMN 261136Z 2612/2712 VRB04KT P6SM BKN200
     FM262100 26008KT P6SM VCSH SCT050 BKN100
     FM270000 08005KT P6SM VCSH OVC040
      TEMPO 2700/2703 4SM -SN BR OVC025
     FM270300 07005KT 3SM -SN BR OVC015=



000
FTUS45 KABQ 261100
TAFSAF
TAF
KSAF 261136Z 2612/2712 17008KT P6SM BKN035 OVC050
     FM261900 16014G23KT P6SM VCSH SCT035 BKN070
     FM270100 14018G26KT 2SM -SN OVC015
     FM270400 15015KT 1SM -SN BR OVC006=



000
FTUS45 KABQ 261100
TAFABQ
TAF
KABQ 261136Z 2612/2712 08010KT P6SM BKN200
     FM261600 09014G22KT P6SM SCT060 BKN120
     FM262100 12013G22KT P6SM SCT040 OVC080
     FM270100 10022G30KT P6SM VCSH SCT035 OVC060
      TEMPO 2702/2706 3SM -SN BR OVC025
     FM270600 09015G23KT 1SM -SN BR OVC010=



000
FTUS45 KABQ 261100
TAFTCC
TAF
KTCC 261136Z 2612/2712 07010G18KT P6SM SCT015 OVC025
      TEMPO 2612/2615 2SM -SN BR OVC005
     FM261500 08011KT 4SM -SN BR OVC015
     FM261800 11010KT P6SM VCSH OVC025
     FM270200 12013KT 4SM -SN BR OVC015
     FM270600 12012KT 2SM -SN BR OVC009=



000
FTUS45 KABQ 261100
TAFFMN
TAF
KFMN 261136Z 2612/2712 VRB04KT P6SM BKN200
     FM262100 26008KT P6SM VCSH SCT050 BKN100
     FM270000 08005KT P6SM VCSH OVC040
      TEMPO 2700/2703 4SM -SN BR OVC025
     FM270300 07005KT 3SM -SN BR OVC015=



000
FTUS45 KABQ 261100
TAFLVS
TAF
KLVS 261136Z 2612/2712 06012KT 3/4SM -SN BR SCT007 OVC010
     FM261600 15015KT 1SM -SN BR OVC015
     FM262000 16020G30KT 4SM -SHSN BR OVC020
     FM270200 14015KT 1SM -SN BR OVC009
      TEMPO 2704/2708 1/2SM FZFG OVC004=



000
FTUS45 KABQ 261100
TAFROW
TAF
KROW 261136Z 2612/2712 01015G22KT P6SM VCSH OVC025
     FM261900 07011KT P6SM OVC035
     FM262300 12011KT P6SM BKN040
     FM270600 13010KT P6SM VCSH OVC025=



000
FTUS45 KABQ 261100
TAFGUP
TAF
KGUP 261136Z 2612/2712 VRB03KT P6SM BKN200
     FM261900 25012G20KT P6SM SCT060 BKN120
     FM270100 VRB04KT P6SM VCSH OVC050
      TEMPO 2701/2704 4SM -SN BR OVC025
     FM270400 VRB03KT 3SM -SN BR OVC015=



000
FTUS45 KABQ 261000 AAC
TAFTCC
TAF AMD
KTCC 261000Z 2610/2706 04010G18KT P6SM SCT015 OVC050
      TEMPO 2610/2613 4SM -SN BR OVC010
     FM261300 08011KT 2SM -SN BR OVC012
     FM261900 11015KT P6SM VCSH OVC025=



000
FTUS45 KABQ 261000 AAC
TAFTCC
TAF AMD
KTCC 261000Z 2610/2706 04010G18KT P6SM SCT015 OVC050
      TEMPO 2610/2613 4SM -SN BR OVC010
     FM261300 08011KT 2SM -SN BR OVC012
     FM261900 11015KT P6SM VCSH OVC025=



000
FTUS45 KABQ 260900 AAA
TAFSAF
TAF AMD
KSAF 260927Z 2609/2706 17008KT P6SM BKN025 OVC035
      TEMPO 2610/2614 SCT025 BKN035
     FM261400 14013KT P6SM BKN035
     FM261900 16015G22KT P6SM VCSH SCT035 BKN070
     FM270100 14018G26KT 2SM -SN OVC015=



000
FTUS45 KABQ 260900 AAB
TAFTCC
TAF AMD
KTCC 260927Z 2609/2706 04010G18KT 5SM -SN BR SCT006 OVC025
      TEMPO 2609/2613 1SM -SN BR OVC006
     FM261300 08011KT 2SM -SN BR OVC012
     FM261900 11015KT P6SM VCSH OVC025=



000
FTUS45 KABQ 260900 AAA
TAFLVS
TAF AMD
KLVS 260927Z 2609/2706 06008KT 5SM BR OVC012
      TEMPO 2609/2612 1SM -SN BR OVC008
     FM261200 10006KT 3/4SM -SN BR OVC003
     FM261500 15015KT 1SM -SN BR OVC005
     FM262000 16020G28KT 4SM -SHSN BR OVC008
     FM270200 14015KT 1SM -SN BR OVC005=



000
FTUS45 KABQ 260900 AAA
TAFSAF
TAF AMD
KSAF 260927Z 2609/2706 17008KT P6SM BKN025 OVC035
      TEMPO 2610/2614 SCT025 BKN035
     FM261400 14013KT P6SM BKN035
     FM261900 16015G22KT P6SM VCSH SCT035 BKN070
     FM270100 14018G26KT 2SM -SN OVC015=



000
FTUS45 KABQ 260900 AAA
TAFLVS
TAF AMD
KLVS 260927Z 2609/2706 06008KT 5SM BR OVC012
      TEMPO 2609/2612 1SM -SN BR OVC008
     FM261200 10006KT 3/4SM -SN BR OVC003
     FM261500 15015KT 1SM -SN BR OVC005
     FM262000 16020G28KT 4SM -SHSN BR OVC008
     FM270200 14015KT 1SM -SN BR OVC005=



000
FTUS45 KABQ 260600 AAA
TAFTCC
TAF AMD
KTCC 260632Z 2607/2706 04010G18KT 5SM -SN BR OVC010
      TEMPO 2608/2612 3/4SM -SN BR OVC003
     FM261300 08011KT 2SM -SN BR OVC012
     FM261900 11015KT P6SM VCSH OVC025=



000
FTUS45 KABQ 260600 AAA
TAFTCC
TAF AMD
KTCC 260632Z 2607/2706 04010G18KT 5SM -SN BR OVC010
      TEMPO 2608/2612 3/4SM -SN BR OVC003
     FM261300 08011KT 2SM -SN BR OVC012
     FM261900 11015KT P6SM VCSH OVC025=



000
FTUS45 KABQ 260500 RRA
TAFROW
TAF
KROW 260542Z 2606/2706 02012KT P6SM BKN080
     FM261100 01016G23KT P6SM OVC035
     FM261600 06011KT P6SM VCSH OVC025
     FM262100 12011KT P6SM BKN040=



000
FTUS45 KABQ 260500 RRA
TAFABQ
TAF
KABQ 260542Z 2606/2706 35008KT P6SM FEW150
     FM261200 08011KT P6SM FEW070 BKN200
     FM261600 09015G25KT P6SM FEW050 BKN100
     FM262100 13013G22KT P6SM SCT045 BKN080
     FM270130 11022G31KT P6SM VCSH SCT035 OVC060=



000
FTUS45 KABQ 260500 RRA
TAFTCC
TAF
KTCC 260542Z 2606/2706 05011G18KT P6SM -RA OVC012
      TEMPO 2606/2607 3SM -RA BR OVC005
     FM260730 06010KT 1SM -SN BR OVC005
     FM261300 08011KT 2SM -SN BR OVC012
     FM261900 11015KT P6SM VCSH OVC025=



000
FTUS45 KABQ 260500 RRA
TAFFMN
TAF
KFMN 260542Z 2606/2706 VRB05KT P6SM SCT120 SCT200
     FM261000 VRB05KT P6SM SCT150 BKN200
     FM262000 26010KT P6SM SCT080 BKN120
     FM270100 VRB05KT P6SM VCSH SCT060 OVC080=



000
FTUS45 KABQ 260500 RRA
TAFSAF
TAF
KSAF 260542Z 2606/2706 36006KT P6SM FEW090
     FM260830 13013KT P6SM SCT040 SCT080
     FM261000 14009KT P6SM SCT025 BKN040
     FM261400 14013KT P6SM BKN030
     FM261900 16015G22KT P6SM VCSH SCT035 BKN070
     FM270100 14018G26KT 2SM -SN OVC015=



000
FTUS45 KABQ 260500 RRA
TAFABQ
TAF
KABQ 260542Z 2606/2706 35008KT P6SM FEW150
     FM261200 08011KT P6SM FEW070 BKN200
     FM261600 09015G25KT P6SM FEW050 BKN100
     FM262100 13013G22KT P6SM SCT045 BKN080
     FM270130 11022G31KT P6SM VCSH SCT035 OVC060=



000
FTUS45 KABQ 260500 RRA
TAFGUP
TAF
KGUP 260542Z 2606/2706 VRB05KT P6SM FEW150 SCT200
     FM260800 VRB03KT P6SM FEW150 BKN200
     FM261900 27012G20KT P6SM SCT100 BKN150
     FM270200 VRB05KT P6SM VCSH SCT050 BKN070=



000
FTUS45 KABQ 260500 RRA
TAFROW
TAF
KROW 260542Z 2606/2706 02012KT P6SM BKN080
     FM261100 01016G23KT P6SM OVC035
     FM261600 06011KT P6SM VCSH OVC025
     FM262100 12011KT P6SM BKN040=



000
FTUS45 KABQ 260500 RRA
TAFFMN
TAF
KFMN 260542Z 2606/2706 VRB05KT P6SM SCT120 SCT200
     FM261000 VRB05KT P6SM SCT150 BKN200
     FM262000 26010KT P6SM SCT080 BKN120
     FM270100 VRB05KT P6SM VCSH SCT060 OVC080=



000
FTUS45 KABQ 260500 RRA
TAFTCC
TAF
KTCC 260542Z 2606/2706 05011G18KT P6SM -RA OVC012
      TEMPO 2606/2607 3SM -RA BR OVC005
     FM260730 06010KT 1SM -SN BR OVC005
     FM261300 08011KT 2SM -SN BR OVC012
     FM261900 11015KT P6SM VCSH OVC025=



000
FTUS45 KABQ 260500 RRA
TAFSAF
TAF
KSAF 260542Z 2606/2706 36006KT P6SM FEW090
     FM260830 13013KT P6SM SCT040 SCT080
     FM261000 14009KT P6SM SCT025 BKN040
     FM261400 14013KT P6SM BKN030
     FM261900 16015G22KT P6SM VCSH SCT035 BKN070
     FM270100 14018G26KT 2SM -SN OVC015=



000
FTUS45 KABQ 260500 RRA
TAFGUP
TAF
KGUP 260542Z 2606/2706 VRB05KT P6SM FEW150 SCT200
     FM260800 VRB03KT P6SM FEW150 BKN200
     FM261900 27012G20KT P6SM SCT100 BKN150
     FM270200 VRB05KT P6SM VCSH SCT050 BKN070=



000
FTUS45 KABQ 260500 RRA
TAFLVS
TAF
KLVS 260542Z 2606/2706 06008KT 5SM BR OVC012
      TEMPO 2606/2610 3/4SM -SN BR OVC003
     FM261000 10006KT 3/4SM -SN BR OVC003
     FM261400 15015KT 1SM -SN BR OVC005
     FM262000 16020G28KT 4SM -SHSN BR OVC008
     FM270200 14015KT 1SM -SN BR OVC005=



000
FTUS45 KABQ 260300 AAC
TAFTCC
TAF AMD
KTCC 260342Z 2604/2624 04010G18KT P6SM -RA OVC025
      TEMPO 2604/2606 4SM -RA BR OVC015
     FM260600 05014G24KT 2SM -SN BR OVC020
     FM260730 06010KT 3/4SM -SN BR OVC005
     FM261300 08011KT 2SM -SN BR OVC012
     FM261900 12015KT P6SM BKN030=



000
FTUS45 KABQ 260300 AAC
TAFTCC
TAF AMD
KTCC 260342Z 2604/2624 04010G18KT P6SM -RA OVC025
      TEMPO 2604/2606 4SM -RA BR OVC015
     FM260600 05014G24KT 2SM -SN BR OVC020
     FM260730 06010KT 3/4SM -SN BR OVC005
     FM261300 08011KT 2SM -SN BR OVC012
     FM261900 12015KT P6SM BKN030=



000
FTUS45 KABQ 260200 AAA
TAFSAF
TAF AMD
KSAF 260241Z 2603/2624 01005KT P6SM SCT050 BKN080
     FM260800 13013KT P6SM SCT040 BKN080
     FM261000 14009KT P6SM SCT025 BKN040
     FM261400 15016KT P6SM BKN030
     FM261900 17016KT P6SM SCT040 BKN080=



000
FTUS45 KABQ 260200 AAB
TAFTCC
TAF AMD
KTCC 260241Z 2603/2624 04014G23KT P6SM BKN050
     FM260400 05014G24KT 3SM -SN BR OVC020
     FM260700 06010KT 3/4SM -SN BR OVC005
     FM261300 08011KT 2SM -SN BR OVC012
     FM261900 12015KT P6SM BKN030=



000
FTUS45 KABQ 260200 AAA
TAFSAF
TAF AMD
KSAF 260241Z 2603/2624 01005KT P6SM SCT050 BKN080
     FM260800 13013KT P6SM SCT040 BKN080
     FM261000 14009KT P6SM SCT025 BKN040
     FM261400 15016KT P6SM BKN030
     FM261900 17016KT P6SM SCT040 BKN080=



000
FTUS45 KABQ 260200 AAB
TAFTCC
TAF AMD
KTCC 260241Z 2603/2624 04014G23KT P6SM BKN050
     FM260400 05014G24KT 3SM -SN BR OVC020
     FM260700 06010KT 3/4SM -SN BR OVC005
     FM261300 08011KT 2SM -SN BR OVC012
     FM261900 12015KT P6SM BKN030=



000
FTUS45 KABQ 260100 AAA
TAFLVS
TAF AMD
KLVS 260147Z 2602/2624 07007KT 4SM -SN BR OVC015
      TEMPO 2602/2604 3/4SM -SN BR OVC002
     FM260400 06008KT 2SM -SN BR OVC009
      TEMPO 2604/2607 1/2SM SN FZFG VV002
     FM260700 10006KT 1/2SM SN FZFG OVC003
     FM261400 16015KT 1SM -SN BR OVC005
     FM261900 18020G28KT 4SM -SHSN BR OVC007=



000
FTUS45 KABQ 260100 AAA
TAFLVS
TAF AMD
KLVS 260147Z 2602/2624 07007KT 4SM -SN BR OVC015
      TEMPO 2602/2604 3/4SM -SN BR OVC002
     FM260400 06008KT 2SM -SN BR OVC009
      TEMPO 2604/2607 1/2SM SN FZFG VV002
     FM260700 10006KT 1/2SM SN FZFG OVC003
     FM261400 16015KT 1SM -SN BR OVC005
     FM261900 18020G28KT 4SM -SHSN BR OVC007=



000
FTUS45 KABQ 260000 AAA
TAFTCC
TAF AMD
KTCC 260047Z 2601/2624 05014G23KT P6SM BKN060
     FM260400 05014G24KT 3SM -SN BR OVC020
     FM260700 06010KT 3/4SM -SN BR OVC005
     FM261300 08011KT 2SM -SN BR OVC012
     FM261900 12015KT P6SM BKN030=



000
FTUS45 KABQ 260000 AAA
TAFTCC
TAF AMD
KTCC 260047Z 2601/2624 05014G23KT P6SM BKN060
     FM260400 05014G24KT 3SM -SN BR OVC020
     FM260700 06010KT 3/4SM -SN BR OVC005
     FM261300 08011KT 2SM -SN BR OVC012
     FM261900 12015KT P6SM BKN030=



000
FTUS45 KABQ 252300 RRA
TAFABQ
TAF
KABQ 252340Z 2600/2624 32017G27KT P6SM FEW100 SCT150
     FM260200 33016KT P6SM SCT150
     FM260600 35008KT P6SM SCT150
     FM261000 07011KT P6SM FEW040 BKN200
     FM261600 09015G25KT P6SM FEW035 BKN100
     FM262100 13012G21KT P6SM SCT040 BKN080=



000
FTUS45 KABQ 252300 RRA
TAFLVS
TAF
KLVS 252340Z 2600/2624 11014KT P6SM VCSH BKN040
     FM260200 05008KT 3SM -SN BR OVC025
     FM260400 06008KT 1SM -SN BR OVC009
     FM260700 10006KT 1/2SM SN FZFG OVC003
     FM261500 16015KT 1SM -SN BR OVC005
     FM261900 18020G28KT 4SM -SHSN BR OVC007=



000
FTUS45 KABQ 252300 RRA
TAFSAF
TAF
KSAF 252340Z 2600/2624 36011KT P6SM FEW080 SCT150
     FM260100 03005KT P6SM SCT120
     FM260800 14013KT P6SM SCT040
     FM261400 15016KT P6SM BKN030
     FM261900 17016KT P6SM SCT040 BKN080=



000
FTUS45 KABQ 252300 RRA
TAFTCC
TAF
KTCC 252340Z 2600/2624 05012KT P6SM BKN050
     FM260400 05014G24KT 3SM -SN BR OVC015
     FM260700 06010KT 3/4SM -SN BR OVC005
     FM261300 08011KT 2SM -SN BR OVC012
     FM261900 12015KT P6SM BKN030=



000
FTUS45 KABQ 252300 RRA
TAFFMN
TAF
KFMN 252340Z 2600/2624 28014G21KT P6SM FEW150
     FM260130 28009KT P6SM SCT120
     FM260700 VRB05KT P6SM BKN200
     FM262000 28010KT P6SM SCT080 BKN120=



000
FTUS45 KABQ 252300 RRA
TAFGUP
TAF
KGUP 252340Z 2600/2624 25011KT P6SM SCT150
     FM260200 26007KT P6SM FEW120
     FM260400 VRB03KT P6SM BKN200
     FM261900 27011KT P6SM SCT100 BKN200=



000
FTUS45 KABQ 252300 RRA
TAFROW
TAF
KROW 252340Z 2600/2624 32015G25KT P6SM SCT150
     FM260130 34014KT P6SM SCT120
     FM261100 04017KT P6SM OVC040
     FM261600 06011KT P6SM VCSH OVC025
     FM262100 12011KT P6SM BKN040=



000
FTUS45 KABQ 252300 RRA
TAFROW
TAF
KROW 252340Z 2600/2624 32015G25KT P6SM SCT150
     FM260130 34014KT P6SM SCT120
     FM261100 04017KT P6SM OVC040
     FM261600 06011KT P6SM VCSH OVC025
     FM262100 12011KT P6SM BKN040=



000
FTUS45 KABQ 252300 RRA
TAFFMN
TAF
KFMN 252340Z 2600/2624 28014G21KT P6SM FEW150
     FM260130 28009KT P6SM SCT120
     FM260700 VRB05KT P6SM BKN200
     FM262000 28010KT P6SM SCT080 BKN120=



000
FTUS45 KABQ 252300 RRA
TAFGUP
TAF
KGUP 252340Z 2600/2624 25011KT P6SM SCT150
     FM260200 26007KT P6SM FEW120
     FM260400 VRB03KT P6SM BKN200
     FM261900 27011KT P6SM SCT100 BKN200=



000
FTUS45 KABQ 252300 RRA
TAFLVS
TAF
KLVS 252340Z 2600/2624 11014KT P6SM VCSH BKN040
     FM260200 05008KT 3SM -SN BR OVC025
     FM260400 06008KT 1SM -SN BR OVC009
     FM260700 10006KT 1/2SM SN FZFG OVC003
     FM261500 16015KT 1SM -SN BR OVC005
     FM261900 18020G28KT 4SM -SHSN BR OVC007=



000
FTUS45 KABQ 252300 RRA
TAFTCC
TAF
KTCC 252340Z 2600/2624 05012KT P6SM BKN050
     FM260400 05014G24KT 3SM -SN BR OVC015
     FM260700 06010KT 3/4SM -SN BR OVC005
     FM261300 08011KT 2SM -SN BR OVC012
     FM261900 12015KT P6SM BKN030=



000
FTUS45 KABQ 252300 RRA
TAFSAF
TAF
KSAF 252340Z 2600/2624 36011KT P6SM FEW080 SCT150
     FM260100 03005KT P6SM SCT120
     FM260800 14013KT P6SM SCT040
     FM261400 15016KT P6SM BKN030
     FM261900 17016KT P6SM SCT040 BKN080=



000
FTUS45 KABQ 252300 RRA
TAFABQ
TAF
KABQ 252340Z 2600/2624 32017G27KT P6SM FEW100 SCT150
     FM260200 33016KT P6SM SCT150
     FM260600 35008KT P6SM SCT150
     FM261000 07011KT P6SM FEW040 BKN200
     FM261600 09015G25KT P6SM FEW035 BKN100
     FM262100 13012G21KT P6SM SCT040 BKN080=



000
FTUS45 KABQ 252200 AAA
TAFSAF
TAF AMD
KSAF 252226Z 2522/2618 36011KT P6SM FEW080 SCT150
     FM260100 03005KT P6SM SCT100
     FM260700 14013KT P6SM BKN030=



000
FTUS45 KABQ 252000 AAA
TAFFMN
TAF AMD
KFMN 252032Z 2521/2618 28017G27KT P6SM SCT120 BKN200
     FM260200 28009KT P6SM FEW120
     FM260700 VRB05KT P6SM BKN200=



000
FTUS45 KABQ 252000 AAA
TAFFMN
TAF AMD
KFMN 252032Z 2521/2618 28017G27KT P6SM SCT120 BKN200
     FM260200 28009KT P6SM FEW120
     FM260700 VRB05KT P6SM BKN200=



000
FTUS45 KABQ 252000 AAA
TAFGUP
TAF AMD
KGUP 252031Z 2521/2618 24015KT P6SM SCT120 BKN200
     FM260200 26007KT P6SM FEW120
     FM260400 VRB03KT P6SM BKN200=



000
FTUS45 KABQ 252000 AAA
TAFGUP
TAF AMD
KGUP 252031Z 2521/2618 24015KT P6SM SCT120 BKN200
     FM260200 26007KT P6SM FEW120
     FM260400 VRB03KT P6SM BKN200=



000
FTUS45 KABQ 251700
TAFTCC
TAF
KTCC 251740Z 2518/2618 32010KT P6SM SCT150
     FM252200 03015G18KT P6SM BKN140
     FM260200 05012KT P6SM BKN050
     FM260400 05011KT 3SM -SN BR OVC015
     FM260700 06010KT 1SM -SN BR OVC005=



000
FTUS45 KABQ 251700
TAFGUP
TAF
KGUP 251740Z 2518/2618 24015KT P6SM BKN140
     FM252030 28015G24KT P6SM FEW040 SCT120
     FM260200 26007KT P6SM FEW120
     FM260400 VRB03KT P6SM BKN200=



000
FTUS45 KABQ 251700
TAFFMN
TAF
KFMN 251740Z 2518/2618 28010KT P6SM BKN140
     FM251930 28022G32KT P6SM FEW080 SCT140
     FM260200 28009KT P6SM FEW120
     FM260700 VRB05KT P6SM BKN200=



000
FTUS45 KABQ 251700
TAFSAF
TAF
KSAF 251740Z 2518/2618 34016KT P6SM SCT120
     FM251930 31014G23KT P6SM BKN120
     FM260100 03005KT P6SM SKC
     FM260700 14013KT P6SM BKN030=



000
FTUS45 KABQ 251700
TAFROW
TAF
KROW 251740Z 2518/2618 32015G25KT P6SM SCT150
     FM260000 34014KT P6SM SCT070 BKN120
     FM261000 01011KT P6SM OVC040
     FM261400 04011KT P6SM VCSH OVC025=



000
FTUS45 KABQ 251700
TAFABQ
TAF
KABQ 251740Z 2518/2618 VRB05KT P6SM FEW050
     FM251930 31010G17KT P6SM SCT140
     FM252100 32015G25KT P6SM BKN140
     FM260200 33011KT P6SM FEW120
     FM260500 01008KT P6SM SKC
     FM260900 07011KT P6SM FEW040 BKN200=



000
FTUS45 KABQ 251700
TAFTCC
TAF
KTCC 251740Z 2518/2618 32010KT P6SM SCT150
     FM252200 03015G18KT P6SM BKN140
     FM260200 05012KT P6SM BKN050
     FM260400 05011KT 3SM -SN BR OVC015
     FM260700 06010KT 1SM -SN BR OVC005=



000
FTUS45 KABQ 251700
TAFLVS
TAF
KLVS 251740Z 2518/2618 34015G25KT P6SM SCT140
     FM251930 05008KT P6SM BKN120
     FM252200 09010KT P6SM BKN070
     FM260000 12014KT P6SM VCSH BKN040
     FM260200 05008KT 3SM -SN BR OVC025
     FM260400 06008KT 1SM -SN BR OVC009
     FM260700 10006KT 1/2SM SN FZFG OVC003
     FM261500 17015KT 2SM -SN BR OVC007=



000
FTUS45 KABQ 251700
TAFGUP
TAF
KGUP 251740Z 2518/2618 24015KT P6SM BKN140
     FM252030 28015G24KT P6SM FEW040 SCT120
     FM260200 26007KT P6SM FEW120
     FM260400 VRB03KT P6SM BKN200=



000
FTUS45 KABQ 251700
TAFFMN
TAF
KFMN 251740Z 2518/2618 28010KT P6SM BKN140
     FM251930 28022G32KT P6SM FEW080 SCT140
     FM260200 28009KT P6SM FEW120
     FM260700 VRB05KT P6SM BKN200=



000
FTUS45 KABQ 251700
TAFLVS
TAF
KLVS 251740Z 2518/2618 34015G25KT P6SM SCT140
     FM251930 05008KT P6SM BKN120
     FM252200 09010KT P6SM BKN070
     FM260000 12014KT P6SM VCSH BKN040
     FM260200 05008KT 3SM -SN BR OVC025
     FM260400 06008KT 1SM -SN BR OVC009
     FM260700 10006KT 1/2SM SN FZFG OVC003
     FM261500 17015KT 2SM -SN BR OVC007=



000
FTUS45 KABQ 251700
TAFABQ
TAF
KABQ 251740Z 2518/2618 VRB05KT P6SM FEW050
     FM251930 31010G17KT P6SM SCT140
     FM252100 32015G25KT P6SM BKN140
     FM260200 33011KT P6SM FEW120
     FM260500 01008KT P6SM SKC
     FM260900 07011KT P6SM FEW040 BKN200=



000
FTUS45 KABQ 251700
TAFSAF
TAF
KSAF 251740Z 2518/2618 34016KT P6SM SCT120
     FM251930 31014G23KT P6SM BKN120
     FM260100 03005KT P6SM SKC
     FM260700 14013KT P6SM BKN030=



000
FTUS45 KABQ 251700
TAFROW
TAF
KROW 251740Z 2518/2618 32015G25KT P6SM SCT150
     FM260000 34014KT P6SM SCT070 BKN120
     FM261000 01011KT P6SM OVC040
     FM261400 04011KT P6SM VCSH OVC025=



000
FTUS45 KABQ 251600 AAA
TAFGUP
TAF AMD
KGUP 251645Z 2517/2612 23010KT P6SM BKN100
      TEMPO 2517/2518 BKN010
     FM252000 28015G23KT P6SM FEW100 BKN150
     FM260200 26007KT P6SM FEW120
     FM260400 VRB03KT P6SM FEW200=



000
FTUS45 KABQ 251600 AAA
TAFGUP
TAF AMD
KGUP 251645Z 2517/2612 23010KT P6SM BKN100
      TEMPO 2517/2518 BKN010
     FM252000 28015G23KT P6SM FEW100 BKN150
     FM260200 26007KT P6SM FEW120
     FM260400 VRB03KT P6SM FEW200=



000
FTUS45 KABQ 251300 AAA
TAFFMN
TAF AMD
KFMN 251312Z 2513/2612 VRB03KT P6SM SCT200
     FM251600 27010KT P6SM SCT150
     FM251900 28023G32KT P6SM FEW080 BKN150
     FM260200 28009KT P6SM FEW120
     FM260900 07005KT P6SM SCT200=



000
FTUS45 KABQ 251300 AAA
TAFSAF
TAF AMD
KSAF 251312Z 2513/2612 34008KT P6SM FEW025
     FM251900 31014G23KT P6SM BKN100
     FM260200 04006KT P6SM FEW070 SCT120
     FM260700 14013KT P6SM BKN050=



000
FTUS45 KABQ 251300 AAA
TAFSAF
TAF AMD
KSAF 251312Z 2513/2612 34008KT P6SM FEW025
     FM251900 31014G23KT P6SM BKN100
     FM260200 04006KT P6SM FEW070 SCT120
     FM260700 14013KT P6SM BKN050=



000
FTUS45 KABQ 251300 AAA
TAFFMN
TAF AMD
KFMN 251312Z 2513/2612 VRB03KT P6SM SCT200
     FM251600 27010KT P6SM SCT150
     FM251900 28023G32KT P6SM FEW080 BKN150
     FM260200 28009KT P6SM FEW120
     FM260900 07005KT P6SM SCT200=



000
FTUS45 KABQ 251100
TAFROW
TAF
KROW 251140Z 2512/2612 27006KT P6SM SKC
     FM251800 29011KT P6SM SKC
     FM252200 32014G25KT P6SM SKC
     FM260300 36011KT P6SM BKN050
     FM260900 01010KT P6SM VCSH OVC040=



000
FTUS45 KABQ 251100
TAFSAF
TAF
KSAF 251140Z 2512/2612 34008KT P6SM BKN025
     FM251400 36010KT P6SM SCT030
     FM251900 31014G23KT P6SM BKN100
     FM260200 04006KT P6SM FEW070 SCT120
     FM260700 14013KT P6SM BKN050=



000
FTUS45 KABQ 251100
TAFFMN
TAF
KFMN 251140Z 2512/2612 25005KT P6SM SCT200
      TEMPO 2512/2514 2SM BR BKN007
     FM251600 27010KT P6SM SCT150
     FM251900 28023G32KT P6SM FEW080 BKN150
     FM260200 28009KT P6SM FEW120
     FM260900 07005KT P6SM SCT200=



000
FTUS45 KABQ 251100
TAFLVS
TAF
KLVS 251140Z 2512/2612 32010KT P6SM FEW040
     FM251800 02010KT P6SM BKN100
     FM252000 11011KT P6SM SCT050 BKN080
     FM260300 06010KT 3SM -SN BR OVC025
     FM260600 10008KT 1SM -SN BR OVC009
     FM260900 12006KT 1/2SM SN FZFG OVC003=



000
FTUS45 KABQ 251100
TAFGUP
TAF
KGUP 251140Z 2512/2612 23006KT P6SM FEW010
      TEMPO 2512/2514 3SM BR OVC009
     FM251630 25010KT P6SM SCT120
     FM251900 28015G23KT P6SM FEW100 BKN150
     FM260200 26007KT P6SM FEW120
     FM260400 VRB03KT P6SM FEW200=



000
FTUS45 KABQ 251100
TAFTCC
TAF
KTCC 251140Z 2512/2612 27006KT P6SM SKC
     FM251800 35010KT P6SM SKC
     FM252200 04012KT P6SM SKC
     FM260300 05011G18KT P6SM BKN050
     FM260600 05010KT 3SM -SN BR OVC015
     FM260900 06009KT 1SM -SN BR OVC005=



000
FTUS45 KABQ 251100
TAFABQ
TAF
KABQ 251140Z 2512/2612 35005KT P6SM FEW025 BKN035
     FM251800 32010G17KT P6SM SCT120
     FM252000 32016G25KT P6SM FEW090 BKN150
     FM260200 35012KT P6SM FEW080 SCT120
     FM260600 03008KT P6SM FEW200
     FM260900 08011KT P6SM FEW050=



000
FTUS45 KABQ 251100
TAFSAF
TAF
KSAF 251140Z 2512/2612 34008KT P6SM BKN025
     FM251400 36010KT P6SM SCT030
     FM251900 31014G23KT P6SM BKN100
     FM260200 04006KT P6SM FEW070 SCT120
     FM260700 14013KT P6SM BKN050=



000
FTUS45 KABQ 251100
TAFROW
TAF
KROW 251140Z 2512/2612 27006KT P6SM SKC
     FM251800 29011KT P6SM SKC
     FM252200 32014G25KT P6SM SKC
     FM260300 36011KT P6SM BKN050
     FM260900 01010KT P6SM VCSH OVC040=



000
FTUS45 KABQ 251100
TAFFMN
TAF
KFMN 251140Z 2512/2612 25005KT P6SM SCT200
      TEMPO 2512/2514 2SM BR BKN007
     FM251600 27010KT P6SM SCT150
     FM251900 28023G32KT P6SM FEW080 BKN150
     FM260200 28009KT P6SM FEW120
     FM260900 07005KT P6SM SCT200=



000
FTUS45 KABQ 251100
TAFLVS
TAF
KLVS 251140Z 2512/2612 32010KT P6SM FEW040
     FM251800 02010KT P6SM BKN100
     FM252000 11011KT P6SM SCT050 BKN080
     FM260300 06010KT 3SM -SN BR OVC025
     FM260600 10008KT 1SM -SN BR OVC009
     FM260900 12006KT 1/2SM SN FZFG OVC003=



000
FTUS45 KABQ 251100
TAFGUP
TAF
KGUP 251140Z 2512/2612 23006KT P6SM FEW010
      TEMPO 2512/2514 3SM BR OVC009
     FM251630 25010KT P6SM SCT120
     FM251900 28015G23KT P6SM FEW100 BKN150
     FM260200 26007KT P6SM FEW120
     FM260400 VRB03KT P6SM FEW200=



000
FTUS45 KABQ 251100
TAFTCC
TAF
KTCC 251140Z 2512/2612 27006KT P6SM SKC
     FM251800 35010KT P6SM SKC
     FM252200 04012KT P6SM SKC
     FM260300 05011G18KT P6SM BKN050
     FM260600 05010KT 3SM -SN BR OVC015
     FM260900 06009KT 1SM -SN BR OVC005=



000
FTUS45 KABQ 250800 AAC
TAFSAF
TAF AMD
KSAF 250857Z 2509/2606 35008KT P6SM FEW009
      TEMPO 2509/2512 VRB05KT 4SM BR BKN009
     FM251200 35012KT P6SM SCT020
     FM251900 29014G23KT P6SM BKN120
     FM260200 VRB06KT P6SM SCT070 BKN100=



000
FTUS45 KABQ 250700 AAA
TAFFMN
TAF AMD
KFMN 250737Z 2508/2606 VRB05KT P6SM SCT012
      TEMPO 2508/2512 2SM BR BKN010
     FM251200 25005KT 5SM BR SCT008 SCT200
      TEMPO 2512/2514 1SM BR BKN004
     FM251600 27010KT P6SM SCT100 BKN150
     FM252030 28023G32KT P6SM SCT080 SCT140
     FM260200 28009KT P6SM FEW120=



000
FTUS45 KABQ 250700 AAB
TAFSAF
TAF AMD
KSAF 250737Z 2508/2606 35008KT P6SM SCT005
      TEMPO 2508/2512 VRB05KT 4SM BR BKN002
     FM251200 35012KT P6SM SCT020
     FM251900 29014G23KT P6SM BKN120
     FM260200 VRB06KT P6SM SCT070 BKN100=



000
FTUS45 KABQ 250700 AAA
TAFGUP
TAF AMD
KGUP 250737Z 2508/2606 02004KT P6SM OVC007
      TEMPO 2508/2512 3SM BR OVC004
     FM251200 VRB03KT 4SM BR SCT010
      TEMPO 2512/2515 3/4SM BR OVC006
     FM251630 25010KT P6SM SCT120
     FM251900 28015G23KT P6SM SCT110 BKN150
     FM260200 VRB05KT P6SM FEW120=



000
FTUS45 KABQ 250600 AAA
TAFSAF
TAF AMD
KSAF 250644Z 2507/2606 35008KT P6SM SCT015
      TEMPO 2507/2511 VRB05KT 4SM BR BKN004
     FM251200 35012KT P6SM SCT020
     FM251900 29014G23KT P6SM BKN120
     FM260200 VRB06KT P6SM SCT070 BKN100=



000
FTUS45 KABQ 250600 CCA
TAFROW
TAF COR
KROW 250637Z 2506/2606 35006KT P6SM FEW120
      TEMPO 2507/2509 BKN070
     FM251800 32015KT P6SM SKC
     FM252200 34011KT P6SM SKC
     FM260300 36012G18KT P6SM BKN050=



000
FTUS45 KABQ 250600 CCA
TAFSAF
TAF COR
KSAF 250637Z 2506/2606 35008KT P6SM BKN040
      TEMPO 2507/2511 VRB05KT 4SM BR BKN020
     FM251200 35012KT P6SM FEW150
     FM251900 29014G23KT P6SM BKN120
     FM260200 VRB06KT P6SM SCT070 BKN100=



000
FTUS45 KABQ 250600 CCA
TAFLVS
TAF COR
KLVS 250637Z 2506/2606 VRB06KT P6SM FEW040
     FM251800 29013KT P6SM BKN100
     FM252000 11011KT P6SM SCT050 BKN080
     FM260300 07010KT 3SM -SN BR OVC025=



000
FTUS45 KABQ 250600 CCA
TAFTCC
TAF COR
KTCC 250637Z 2506/2606 30006KT P6SM SKC
     FM251900 08011G18KT P6SM BKN100
     FM252300 05012G19KT P6SM BKN070
     FM260400 04011G17KT 5SM -SN OVC035=



000
FTUS45 KABQ 250500 RRA
TAFGUP
TAF
KGUP 250541Z 2506/2606 02004KT P6SM BKN015
      TEMPO 2507/2511 1SM BR OVC006
     FM251100 VRB03KT 4SM BR SCT010
      TEMPO 2511/2515 3/4SM BR OVC006
     FM251630 25010KT P6SM SCT120
     FM251900 28015G23KT P6SM SCT110 BKN150
     FM260200 VRB05KT P6SM FEW120=



000
FTUS45 KABQ 250500 RRA
TAFLVS
TAF
KLVS 250541Z 2506/2606 02006KT P6SM SKC
     FM251800 29013KT P6SM BKN100=



000
FTUS45 KABQ 250500 RRA
TAFABQ
TAF
KABQ 250541Z 2506/2606 35005KT P6SM SCT050
     FM251800 32010G17KT P6SM SCT150
     FM252000 32017G28KT P6SM FEW090 BKN150
     FM260200 34011KT P6SM FEW080 SCT120=



000
FTUS45 KABQ 250500 RRA
TAFTCC
TAF
KTCC 250541Z 2506/2606 33007KT P6SM SKC
     FM251900 11010KT P6SM BKN100=



000
FTUS45 KABQ 250500 RRA
TAFROW
TAF
KROW 250541Z 2506/2606 36006KT P6SM SKC
     FM251800 32015KT P6SM SKC
     FM252200 34011KT P6SM SKC=



000
FTUS45 KABQ 250500 RRA
TAFSAF
TAF
KSAF 250541Z 2506/2606 35008KT P6SM BKN040
      TEMPO 2507/2511 VRB05KT 4SM BR BKN020
     FM251200 35012KT P6SM FEW150
     FM251800 26014G23KT P6SM BKN120=



000
FTUS45 KABQ 250500 RRA
TAFFMN
TAF
KFMN 250541Z 2506/2606 VRB05KT P6SM SCT012
      TEMPO 2507/2511 1SM BR BKN007
     FM251100 25005KT 5SM BR SCT008 SCT200
      TEMPO 2511/2515 1SM BR BKN004
     FM251600 27010KT P6SM SCT100 BKN150
     FM252030 28023G32KT P6SM SCT080 SCT140
     FM260200 28009KT P6SM FEW120=



000
FTUS45 KABQ 250100 AAB
TAFSAF
TAF AMD
KSAF 250122Z 2501/2524 36010KT P6SM SCT040 BKN070
      TEMPO 2501/2502 12010KT -SHSN SCT010 OVC025
     FM250200 34007KT P6SM VCSH SCT040 BKN100
     FM250400 32006KT P6SM FEW050 SCT100
     FM251200 35012KT P6SM FEW150
     FM251800 26013G20KT P6SM BKN120=



000
FTUS45 KABQ 250100 AAA
TAFGUP
TAF AMD
KGUP 250122Z 2501/2524 36005KT P6SM SCT020 BKN040
      TEMPO 2501/2503 1SM -SHSN BR OVC009
     FM250400 VRB04KT P6SM SCT060
     FM250900 VRB03KT 3/4SM BR OVC004
     FM251600 25010KT P6SM SCT120
     FM252000 28011G18KT P6SM BKN100=



000
FTUS45 KABQ 250000 AAA
TAFABQ
TAF AMD
KABQ 250033Z 2501/2524 09013G21KT P6SM VCSH FEW050 BKN080
      TEMPO 2501/2503 15010G17KT SCT040 BKN060
     FM250300 02010KT P6SM SCT050 BKN100
     FM250600 35005KT P6SM FEW100
     FM251800 32011KT P6SM SCT150
     FM252000 32018G28KT P6SM BKN120=



000
FTUS45 KABQ 242300
TAFGUP
TAF
KGUP 242338Z 2500/2524 36005KT P6SM SCT020 BKN040
      TEMPO 2500/2503 BKN020
     FM250400 VRB04KT P6SM SCT060
     FM250900 VRB03KT 3/4SM BR OVC004
     FM251600 25010KT P6SM SCT120
     FM252000 28011G18KT P6SM BKN100=



000
FTUS45 KABQ 242300
TAFABQ
TAF
KABQ 242338Z 2500/2524 09013G21KT P6SM VCSH FEW050 BKN070
      TEMPO 2500/2502 10014G22KT SCT040 OVC060
     FM250300 02010KT P6SM SCT050 BKN100
     FM250600 35005KT P6SM FEW100
     FM251800 32011KT P6SM SCT150
     FM252000 32018G28KT P6SM BKN120=



000
FTUS45 KABQ 242300
TAFROW
TAF
KROW 242338Z 2500/2524 34010KT P6SM VCSH BKN050
     FM250700 28005KT P6SM SKC
     FM251800 32015KT P6SM SKC
     FM252200 34011KT P6SM SKC=



000
FTUS45 KABQ 242300
TAFSAF
TAF
KSAF 242338Z 2500/2524 36010KT P6SM SCT050 BKN070
      TEMPO 2500/2502 12010KT 4SM -SHSN SCT010 BKN040
     FM250200 34007KT P6SM VCSH SCT040 BKN100
     FM250400 32006KT P6SM FEW050 SCT100
     FM251200 35012KT P6SM FEW150
     FM251800 26013G20KT P6SM BKN120=



000
FTUS45 KABQ 242300
TAFTCC
TAF
KTCC 242338Z 2500/2524 08010KT P6SM VCSH BKN070
      TEMPO 2500/2502 5SM -SHRASN BKN040 OVC060
     FM250200 25010KT P6SM BKN080
     FM250600 30007KT P6SM SKC
     FM251900 11010KT P6SM BKN100=



000
FTUS45 KABQ 242300
TAFLVS
TAF
KLVS 242338Z 2500/2524 35009KT P6SM VCSH FEW030 BKN050
     FM250200 VRB05KT P6SM SCT070
     FM250600 02006KT P6SM SKC
     FM251800 29013KT P6SM BKN100=



000
FTUS45 KABQ 242300
TAFFMN
TAF
KFMN 242338Z 2500/2524 28009KT P6SM VCSH SCT015 BKN035
      TEMPO 2500/2502 4SM -SHSN BR BKN010 OVC035
     FM250300 26007KT P6SM SCT040
     FM251000 25005KT P6SM VCFG SCT002
     FM251600 27010KT P6SM BKN100
     FM252000 28023G33KT P6SM BKN060=



000
FTUS45 KABQ 242200 AAB
TAFFMN
TAF AMD
KFMN 242231Z 2423/2518 26010KT P6SM VCSH SCT015 BKN060
      TEMPO 2423/2424 3SM -SHSN BR BKN015
     FM250300 26007KT P6SM SCT040=



000
FTUS45 KABQ 242100 AAA
TAFGUP
TAF AMD
KGUP 242154Z 2422/2518 02005KT P6SM SCT020 BKN070
      TEMPO 2422/2501 BKN020
     FM250400 VRB04KT P6SM SCT060
     FM250900 VRB03KT 3/4SM BR OVC004=



000
FTUS45 KABQ 242000 AAA
TAFFMN
TAF AMD
KFMN 242058Z 2421/2518 25010KT 4SM -SN OVC015
      TEMPO 2421/2423 3/4SM -SN BR OVC004
     FM242300 24011KT P6SM VCSH OVC035
      TEMPO 2423/2501 3SM -SN BR BKN015
     FM250200 26007KT P6SM SCT040=



000
FTUS45 KABQ 242000 AAA
TAFSAF
TAF AMD
KSAF 242011Z 2420/2518 36010KT P6SM VCSH FEW025 BKN070
      TEMPO 2420/2423 4SM -SHSN SCT010 BKN030
     FM250100 33007KT P6SM VCSH SCT040 BKN100
     FM250500 32006KT P6SM SCT060
     FM251200 35012KT P6SM SCT060=



000
FTUS45 KABQ 242000 AAA
TAFABQ
TAF AMD
KABQ 242006Z 2420/2518 10023G33KT P6SM VCSH SCT035 BKN050
     FM242300 09017G27KT P6SM VCSH SCT030 BKN040
     FM250200 03010KT P6SM BKN040 BKN100
     FM250600 35005KT P6SM SCT100=



000
FTUS45 KABQ 241900 AAA
TAFROW
TAF AMD
KROW 241931Z 2420/2518 01008KT P6SM SCT030
     FM250100 35007KT P6SM VCSH BKN050
     FM250700 31006KT P6SM BKN060=



000
FTUS45 KABQ 241900 AAA
TAFROW
TAF AMD
KROW 241931Z 2420/2518 01008KT P6SM SCT030
     FM250100 35007KT P6SM VCSH BKN050
     FM250700 31006KT P6SM BKN060=



000
FTUS45 KABQ 241900 AAB
TAFABQ
TAF AMD
KABQ 241928Z 2419/2518 10020G32KT P6SM VCSH BKN030 OVC050
      TEMPO 2422/2502 3SM -SHSNPL SCT010 BKN020 OVC040
     FM250300 03010KT P6SM VCSH BKN040 BKN100
     FM250600 35010KT P6SM SCT060 BKN200=



000
FTUS45 KABQ 241900 AAB
TAFABQ
TAF AMD
KABQ 241928Z 2419/2518 10020G32KT P6SM VCSH BKN030 OVC050
      TEMPO 2422/2502 3SM -SHSNPL SCT010 BKN020 OVC040
     FM250300 03010KT P6SM VCSH BKN040 BKN100
     FM250600 35010KT P6SM SCT060 BKN200=



000
FTUS45 KABQ 241900 AAA
TAFFMN
TAF AMD
KFMN 241922Z 2419/2518 08008KT P6SM -SHSN SCT010 OVC050
      TEMPO 2419/2421 4SM -SN BR OVC020
     FM242100 24012KT P6SM VCSH OVC025
     FM242100 28010KT 3SM -SN BR BKN015 OVC030
     FM250300 29008KT P6SM SCT040=



000
FTUS45 KABQ 241900 AAA
TAFFMN
TAF AMD
KFMN 241922Z 2419/2518 08008KT P6SM -SHSN SCT010 OVC050
      TEMPO 2419/2421 4SM -SN BR OVC020
     FM242100 24012KT P6SM VCSH OVC025
     FM242100 28010KT 3SM -SN BR BKN015 OVC030
     FM250300 29008KT P6SM SCT040=



000
FTUS45 KABQ 241900 AAC
TAFSAF
TAF AMD
KSAF 241913Z 2419/2518 36010KT P6SM -SHSN SCT020 BKN030
      TEMPO 2419/2501 2SM -SN SCT010 BKN030 OVC050
     FM250100 34010KT P6SM VCSH BKN040 BKN100
     FM250600 33011KT P6SM SCT060 BKN100 BKN200=



000
FTUS45 KABQ 241900 AAC
TAFSAF
TAF AMD
KSAF 241913Z 2419/2518 36010KT P6SM -SHSN SCT020 BKN030
      TEMPO 2419/2501 2SM -SN SCT010 BKN030 OVC050
     FM250100 34010KT P6SM VCSH BKN040 BKN100
     FM250600 33011KT P6SM SCT060 BKN100 BKN200=



000
FTUS45 KABQ 241800 AAB
TAFGUP
TAF AMD
KGUP 241836Z 2419/2518 08008KT 6SM -SN BR SCT008 BKN020 OVC030
      TEMPO 2419/2421 3SM -SN BR OVC010
     FM242100 24012KT P6SM VCSH OVC025
     FM250300 29008KT P6SM SCT040=



000
FTUS45 KABQ 241800 AAB
TAFGUP
TAF AMD
KGUP 241836Z 2419/2518 08008KT 6SM -SN BR SCT008 BKN020 OVC030
      TEMPO 2419/2421 3SM -SN BR OVC010
     FM242100 24012KT P6SM VCSH OVC025
     FM250300 29008KT P6SM SCT040=



000
FTUS45 KABQ 241800 AAB
TAFSAF
TAF AMD
KSAF 241833Z 2419/2518 36010KT P6SM -SHSN SCT020 BKN030
      TEMPO 2419/2401 5SM -SN SCT010 BKN020 OVC040
     FM242200 34010KT P6SM VCSH BKN040 BKN100
     FM250600 33011KT P6SM SCT060 BKN100 BKN200=



000
FTUS45 KABQ 241800 AAA
TAFGUP
TAF AMD
KGUP 241814Z 2418/2518 08008KT 3SM -SN BR BKN020 OVC030
      TEMPO 2418/2421 1/2SM SN FZFG OVC010
     FM242100 24012KT P6SM VCSH OVC025
     FM250300 29008KT P6SM SCT040=



000
FTUS45 KABQ 241800 CCA
TAFLVS
TAF COR
KLVS 241808Z 2418/2518 05012KT P6SM VCSH SCT030 OVC060
      TEMPO 2422/2502 3SM -SHSNPL SCT010 BKN020 OVC040
     FM250300 34010KT P6SM VCSH BKN040 BKN100
     FM250600 33011KT P6SM SCT060 BKN100 BKN200=



000
FTUS45 KABQ 241800 CCA
TAFLVS
TAF COR
KLVS 241808Z 2418/2518 05012KT P6SM VCSH SCT030 OVC060
      TEMPO 2422/2502 3SM -SHSNPL SCT010 BKN020 OVC040
     FM250300 34010KT P6SM VCSH BKN040 BKN100
     FM250600 33011KT P6SM SCT060 BKN100 BKN200=



000
FTUS45 KABQ 241800 AAA
TAFSAF
TAF AMD
KSAF 241807Z 2418/2518 04013G23KT 3SM -SN BR SCT020 OVC040
      TEMPO 2418/2422 1SM -SHSNPL SCT010 BKN020 OVC040
     FM242200 34010KT P6SM VCSH BKN040 BKN100
     FM250600 33011KT P6SM SCT060 BKN100 BKN200=



000
FTUS45 KABQ 241800 AAA
TAFSAF
TAF AMD
KSAF 241807Z 2418/2518 04013G23KT 3SM -SN BR SCT020 OVC040
      TEMPO 2418/2422 1SM -SHSNPL SCT010 BKN020 OVC040
     FM242200 34010KT P6SM VCSH BKN040 BKN100
     FM250600 33011KT P6SM SCT060 BKN100 BKN200=



000
FTUS45 KABQ 241800 CCA
TAFROW
TAF COR
KROW 241803Z 2418/2518 01008KT P6SM BKN015
     FM250100 35007KT P6SM VCSH OVC050
     FM250700 31006KT P6SM BKN060=



000
FTUS45 KABQ 241800 CCA
TAFROW
TAF COR
KROW 241803Z 2418/2518 01008KT P6SM BKN015
     FM250100 35007KT P6SM VCSH OVC050
     FM250700 31006KT P6SM BKN060=



000
FTUS45 KABQ 241700 AAA
TAFABQ
TAF AMD
KABQ 241759Z 2418/2518 10020G32KT P6SM -SHSN BKN030 OVC050
      TEMPO 2422/2502 3SM SHSNPL SCT010 BKN020 OVC040
     FM250300 03010KT P6SM VCSH BKN040 BKN100
     FM250600 35010KT P6SM SCT060 BKN200=



000
FTUS45 KABQ 241700 AAA
TAFABQ
TAF AMD
KABQ 241759Z 2418/2518 10020G32KT P6SM -SHSN BKN030 OVC050
      TEMPO 2422/2502 3SM SHSNPL SCT010 BKN020 OVC040
     FM250300 03010KT P6SM VCSH BKN040 BKN100
     FM250600 35010KT P6SM SCT060 BKN200=



000
FTUS45 KABQ 241700 RRA
TAFFMN
TAF
KFMN 241753Z 2418/2518 08008KT 1SM -SN BR SCT005 OVC015
      TEMPO 2418/2421 1/2SM SN FZFG OVC010
     FM242100 24012KT P6SM VCSH OVC025
     FM242100 28010KT 3SM -SN BR BKN015 OVC030
     FM250300 29008KT P6SM SCT040=



000
FTUS45 KABQ 241700 RRA
TAFSAF
TAF
KSAF 241753Z 2418/2518 04013G23KT P6SM VCSH SCT030 OVC050
      TEMPO 2422/2502 3SM SHSNPL SCT010 BKN020 OVC040
     FM250300 34010KT P6SM VCSH BKN040 BKN100
     FM250600 33011KT P6SM SCT060 BKN100 BKN200=



000
FTUS45 KABQ 241700 RRA
TAFROW
TAF
KROW 241753Z 2418/2518 01008KT P6SM BKN050
     FM250100 35007KT P6SM VCSH OVC050
     FM250700 31006KT P6SM BKN060=



000
FTUS45 KABQ 241700 RRA
TAFTCC
TAF
KTCC 241753Z 2418/2518 04011KT P6SM BKN050
     FM250100 02005KT P6SM BKN040
     FM250600 33005KT P6SM SCT050=



000
FTUS45 KABQ 241700 RRA
TAFABQ
TAF
KABQ 241753Z 2418/2518 07018G26KT P6SM -SHSN SCT030 OVC050
      TEMPO 2422/2502 3SM SHSNPL SCT010 BKN020 OVC040
     FM250300 03010KT P6SM VCSH BKN040 BKN100
     FM250600 35010KT P6SM SCT060 BKN200=



000
FTUS45 KABQ 241700 RRA
TAFGUP
TAF
KGUP 241753Z 2418/2518 08008KT 1SM -SN BR BKN020 OVC030
      TEMPO 2418/2421 1/2SM SN FZFG OVC010
     FM242100 24012KT P6SM VCSH OVC025
     FM242100 28010KT 3SM -SN BR BKN015 OVC030
     FM250300 29008KT P6SM SCT040=



000
FTUS45 KABQ 241700 RRA
TAFLVS
TAF
KLVS 241753Z 2418/2518 04012KT P6SM VCSH SCT030 OVC060
      TEMPO 2422/2502 3SM SHSNPL SCT010 BKN020 OVC040
     FM250300 34010KT P6SM VCSH BKN040 BKN100
     FM250600 33011KT P6SM SCT060 BKN100 BKN200=



000
FTUS45 KABQ 241700 RRA
TAFSAF
TAF
KSAF 241753Z 2418/2518 04013G23KT P6SM VCSH SCT030 OVC050
      TEMPO 2422/2502 3SM SHSNPL SCT010 BKN020 OVC040
     FM250300 34010KT P6SM VCSH BKN040 BKN100
     FM250600 33011KT P6SM SCT060 BKN100 BKN200=



000
FTUS45 KABQ 241700 RRA
TAFTCC
TAF
KTCC 241753Z 2418/2518 04011KT P6SM BKN050
     FM250100 02005KT P6SM BKN040
     FM250600 33005KT P6SM SCT050=



000
FTUS45 KABQ 241700 RRA
TAFROW
TAF
KROW 241753Z 2418/2518 01008KT P6SM BKN050
     FM250100 35007KT P6SM VCSH OVC050
     FM250700 31006KT P6SM BKN060=



000
FTUS45 KABQ 241700 RRA
TAFFMN
TAF
KFMN 241753Z 2418/2518 08008KT 1SM -SN BR SCT005 OVC015
      TEMPO 2418/2421 1/2SM SN FZFG OVC010
     FM242100 24012KT P6SM VCSH OVC025
     FM242100 28010KT 3SM -SN BR BKN015 OVC030
     FM250300 29008KT P6SM SCT040=



000
FTUS45 KABQ 241700 RRA
TAFLVS
TAF
KLVS 241753Z 2418/2518 04012KT P6SM VCSH SCT030 OVC060
      TEMPO 2422/2502 3SM SHSNPL SCT010 BKN020 OVC040
     FM250300 34010KT P6SM VCSH BKN040 BKN100
     FM250600 33011KT P6SM SCT060 BKN100 BKN200=



000
FTUS45 KABQ 241700 RRA
TAFGUP
TAF
KGUP 241753Z 2418/2518 08008KT 1SM -SN BR BKN020 OVC030
      TEMPO 2418/2421 1/2SM SN FZFG OVC010
     FM242100 24012KT P6SM VCSH OVC025
     FM242100 28010KT 3SM -SN BR BKN015 OVC030
     FM250300 29008KT P6SM SCT040=



000
FTUS45 KABQ 241600 AAC
TAFFMN
TAF AMD
KFMN 241633Z 2417/2512 08008KT 3SM -SN BR BKN015 OVC030
      TEMPO 2417/2418 1SM -SN BR OVC010
     FM241800 07007KT P6SM VCSH OVC025
     FM242100 28010KT P6SM VCSH BKN035 OVC050
     FM250100 29008KT P6SM SCT050
     FM251000 VRB04KT P6SM SKC=



000
FTUS45 KABQ 241600 AAB
TAFROW
TAF AMD
KROW 241612Z 2416/2512 14005KT P6SM BKN015
     FM241700 01008KT P6SM BKN050
     FM250100 35007KT P6SM VCSH OVC050
     FM250700 31006KT P6SM BKN060=



000
FTUS45 KABQ 241600 AAB
TAFROW
TAF AMD
KROW 241612Z 2416/2512 14005KT P6SM BKN015
     FM241700 01008KT P6SM BKN050
     FM250100 35007KT P6SM VCSH OVC050
     FM250700 31006KT P6SM BKN060=



000
FTUS45 KABQ 241600 AAB
TAFFMN
TAF AMD
KFMN 241606Z 2416/2512 08008KT 1SM -SN BR BKN010 OVC030
      TEMPO 2416/2417 1/4SM -SN FZFG OVC005
     FM241700 07007KT P6SM VCSH OVC025
     FM242100 28010KT P6SM VCSH BKN035 OVC050
     FM250100 29008KT P6SM SCT050
     FM251000 VRB04KT P6SM SKC=



000
FTUS45 KABQ 241600 AAB
TAFFMN
TAF AMD
KFMN 241606Z 2416/2512 08008KT 1SM -SN BR BKN010 OVC030
      TEMPO 2416/2417 1/4SM -SN FZFG OVC005
     FM241700 07007KT P6SM VCSH OVC025
     FM242100 28010KT P6SM VCSH BKN035 OVC050
     FM250100 29008KT P6SM SCT050
     FM251000 VRB04KT P6SM SKC=



000
FTUS45 KABQ 241500 AAA
TAFGUP
TAF AMD
KGUP 241526Z 2415/2512 07006KT P6SM SCT009 OVC040
      TEMPO 2415/2417 1SM -SN BR VV005
     FM241700 36005KT 3SM -SN BR OVC015
      TEMPO 2417/2420 1SM -SN BR OVC009
     FM242000 33005KT 5SM -SN OVC025
     FM250200 VRB05KT P6SM VCSH SCT025 BKN050
     FM250900 VRB03KT 3SM BR OVC015=



000
FTUS45 KABQ 241500 AAA
TAFROW
TAF AMD
KROW 241521Z 2415/2512 14005KT P6SM BKN015
     FM241600 01008KT P6SM BKN050
     FM250100 35007KT P6SM VCSH OVC050
     FM250700 31006KT P6SM BKN060=



000
FTUS45 KABQ 241500 AAA
TAFSAF
TAF AMD
KSAF 241518Z 2415/2512 02013KT P6SM VCSH BKN040 OVC080
     FM241800 12014KT P6SM VCSH OVC035
      TEMPO 2419/2423 4SM -SN BR OVC025
     FM250300 33005KT P6SM BKN035
     FM250600 36008KT P6SM SCT050=



000
FTUS45 KABQ 241500 AAA
TAFFMN
TAF AMD
KFMN 241506Z 2415/2512 12008KT 3SM -SN FEW010 OVC020
      TEMPO 2415/2417 1SM -SN BR OVC015
     FM241700 07007KT P6SM VCSH OVC025
     FM242100 28010KT P6SM VCSH BKN035 OVC050
     FM250100 29008KT P6SM SCT050
     FM251000 VRB04KT P6SM SKC=



000
FTUS45 KABQ 241300 AAA
TAFROW
TAF AMD
KROW 241324Z 2413/2512 14005KT P6SM BKN015
     FM241500 01008KT P6SM BKN050
     FM250100 35007KT P6SM VCSH OVC050
     FM250700 31006KT P6SM BKN060=



000
FTUS45 KABQ 241200 AAA
TAFGUP
TAF AMD
KGUP 241234Z 2413/2512 07006KT P6SM SCT009 OVC040
      TEMPO 2413/2416 1/2SM SN FZFG VV005
     FM241600 36005KT 3SM -SN BR OVC015
      TEMPO 2416/2420 1SM -SN BR OVC009
     FM242000 33005KT 5SM -SN OVC025
     FM250200 VRB05KT P6SM VCSH SCT025 BKN050
     FM250900 VRB03KT 3SM BR OVC015=



000
FTUS45 KABQ 241100
TAFSAF
TAF
KSAF 241135Z 2412/2512 01007KT P6SM FEW070
     FM241500 06010KT P6SM VCSH BKN040
     FM241800 12014KT P6SM VCSH OVC035
      TEMPO 2419/2423 4SM -SN BR OVC025
     FM250300 33005KT P6SM BKN035
     FM250600 36008KT P6SM SCT050=



000
FTUS45 KABQ 241100
TAFABQ
TAF
KABQ 241135Z 2412/2512 36005KT P6SM SCT025 BKN070
     FM241400 04008KT P6SM BKN040
     FM241800 08018G26KT P6SM VCSH OVC040
     FM250300 03008KT P6SM BKN050
     FM250600 36006KT P6SM SCT060=



000
FTUS45 KABQ 241100
TAFFMN
TAF
KFMN 241135Z 2412/2512 09006KT P6SM VCSH FEW010 OVC020
      TEMPO 2412/2416 3SM -SN BR OVC010
     FM241600 07007KT P6SM VCSH OVC025
     FM242100 28010KT P6SM VCSH BKN035 OVC050
     FM250100 29008KT P6SM SCT050
     FM251000 VRB04KT P6SM SKC=



000
FTUS45 KABQ 241100
TAFGUP
TAF
KGUP 241135Z 2412/2512 06006KT P6SM FEW009 OVC040
      TEMPO 2412/2416 3SM -SN BR SCT009 OVC025
     FM241600 36005KT 3SM -SN BR OVC015
      TEMPO 2416/2420 1SM -SN BR OVC009
     FM242000 33005KT 5SM -SN OVC025
     FM250200 VRB05KT P6SM VCSH SCT025 BKN050
     FM250900 VRB03KT 3SM BR OVC015=



000
FTUS45 KABQ 241100
TAFROW
TAF
KROW 241135Z 2412/2512 16005KT P6SM OVC200
     FM241500 01008KT P6SM BKN050
     FM250100 35007KT P6SM VCSH OVC050
     FM250700 31006KT P6SM BKN060=



000
FTUS45 KABQ 241100
TAFTCC
TAF
KTCC 241135Z 2412/2512 28007KT P6SM SCT200
     FM241500 34008KT P6SM BKN060
     FM241800 04011KT P6SM BKN050
     FM250100 02005KT P6SM BKN040
     FM250600 33005KT P6SM SCT050=



000
FTUS45 KABQ 241100
TAFGUP
TAF
KGUP 241135Z 2412/2512 06006KT P6SM FEW009 OVC040
      TEMPO 2412/2416 3SM -SN BR SCT009 OVC025
     FM241600 36005KT 3SM -SN BR OVC015
      TEMPO 2416/2420 1SM -SN BR OVC009
     FM242000 33005KT 5SM -SN OVC025
     FM250200 VRB05KT P6SM VCSH SCT025 BKN050
     FM250900 VRB03KT 3SM BR OVC015=



000
FTUS45 KABQ 241100
TAFSAF
TAF
KSAF 241135Z 2412/2512 01007KT P6SM FEW070
     FM241500 06010KT P6SM VCSH BKN040
     FM241800 12014KT P6SM VCSH OVC035
      TEMPO 2419/2423 4SM -SN BR OVC025
     FM250300 33005KT P6SM BKN035
     FM250600 36008KT P6SM SCT050=



000
FTUS45 KABQ 241100
TAFFMN
TAF
KFMN 241135Z 2412/2512 09006KT P6SM VCSH FEW010 OVC020
      TEMPO 2412/2416 3SM -SN BR OVC010
     FM241600 07007KT P6SM VCSH OVC025
     FM242100 28010KT P6SM VCSH BKN035 OVC050
     FM250100 29008KT P6SM SCT050
     FM251000 VRB04KT P6SM SKC=



000
FTUS45 KABQ 241100
TAFABQ
TAF
KABQ 241135Z 2412/2512 36005KT P6SM SCT025 BKN070
     FM241400 04008KT P6SM BKN040
     FM241800 08018G26KT P6SM VCSH OVC040
     FM250300 03008KT P6SM BKN050
     FM250600 36006KT P6SM SCT060=



000
FTUS45 KABQ 241100
TAFROW
TAF
KROW 241135Z 2412/2512 16005KT P6SM OVC200
     FM241500 01008KT P6SM BKN050
     FM250100 35007KT P6SM VCSH OVC050
     FM250700 31006KT P6SM BKN060=



000
FTUS45 KABQ 241100
TAFTCC
TAF
KTCC 241135Z 2412/2512 28007KT P6SM SCT200
     FM241500 34008KT P6SM BKN060
     FM241800 04011KT P6SM BKN050
     FM250100 02005KT P6SM BKN040
     FM250600 33005KT P6SM SCT050=



000
FTUS45 KABQ 241100
TAFLVS
TAF
KLVS 241135Z 2412/2512 01009KT P6SM SKC
     FM241600 05010KT P6SM BKN050
     FM241900 08008KT P6SM OVC040
     FM242200 11007KT P6SM VCSH SCT015 OVC035
     FM250300 30005KT P6SM SCT050=



000
FTUS45 KABQ 240900 AAB
TAFGUP
TAF AMD
KGUP 240901Z 2409/2506 07006KT P6SM FEW009 OVC040
      TEMPO 2409/2413 2SM -SN BR SCT009 OVC025
     FM241400 02005KT 3SM -SN BR OVC015
      TEMPO 2415/2419 2SM -SN BR OVC009
     FM242000 33005KT 5SM -SN OVC025
     FM250200 VRB05KT P6SM VCSH SCT025 BKN040=



000
FTUS45 KABQ 240900 AAA
TAFROW
TAF AMD
KROW 240901Z 2409/2506 17005KT P6SM OVC200
     FM241600 01008KT P6SM BKN035
     FM250100 33005KT P6SM VCSH OVC040=



000
FTUS45 KABQ 240700 AAA
TAFGUP
TAF AMD
KGUP 240717Z 2407/2506 05006KT 3SM -SN BR FEW009 OVC025
      TEMPO 2407/2411 1SM -SN BR SCT009 OVC015
     FM241400 02005KT 3SM -SN BR OVC015
      TEMPO 2415/2419 2SM -SN BR OVC009
     FM242000 33005KT 5SM -SN OVC025
     FM250200 VRB05KT P6SM VCSH SCT025 BKN040=



000
FTUS45 KABQ 240500
TAFABQ
TAF
KABQ 240540Z 2406/2506 36005KT P6SM SCT025 BKN070
     FM241400 03008KT P6SM BKN040
     FM241730 08018G25KT P6SM VCSH OVC040
     FM250300 02008KT P6SM BKN050=



000
FTUS45 KABQ 240500
TAFLVS
TAF
KLVS 240540Z 2406/2506 01005KT P6SM SKC
     FM241500 06010KT P6SM BKN050
     FM242000 09008KT P6SM OVC040
     FM250000 12008KT 5SM -SN BKN015 OVC040
     FM250400 30005KT P6SM SCT050=



000
FTUS45 KABQ 240500
TAFSAF
TAF
KSAF 240540Z 2406/2506 01007KT P6SM SCT015 SCT070
     FM241600 10010KT P6SM VCSH BKN040
     FM241800 13015KT P6SM VCSH OVC035 PROB30 2419/2424 4SM -SN
      OVC025
     FM250300 33005KT P6SM BKN030=



000
FTUS45 KABQ 240500
TAFABQ
TAF
KABQ 240540Z 2406/2506 36005KT P6SM SCT025 BKN070
     FM241400 03008KT P6SM BKN040
     FM241730 08018G25KT P6SM VCSH OVC040
     FM250300 02008KT P6SM BKN050=



000
FTUS45 KABQ 240500
TAFTCC
TAF
KTCC 240540Z 2406/2506 26005KT P6SM SCT020
     FM241500 02008KT P6SM BKN070
     FM241900 05011KT P6SM BKN060
     FM250000 02005KT P6SM VCSH BKN050
     FM250400 33005KT P6SM SCT050=



000
FTUS45 KABQ 240500
TAFROW
TAF
KROW 240540Z 2406/2506 VRB03KT P6SM SCT015
     FM240800 17005KT P6SM OVC015
     FM241600 01008KT P6SM BKN030
     FM250100 33005KT P6SM VCSH OVC030=



000
FTUS45 KABQ 240500
TAFFMN
TAF
KFMN 240540Z 2406/2506 10008KT P6SM VCSH BKN025 OVC050
      TEMPO 2406/2410 4SM -SN BR OVC019
     FM241500 09008KT P6SM VCSH OVC025
     FM242100 29010KT P6SM VCSH BKN030 OVC050
     FM250100 30008KT P6SM SCT050=



000
FTUS45 KABQ 240500
TAFGUP
TAF
KGUP 240540Z 2406/2506 05006KT P6SM -SN BKN025 OVC040
      TEMPO 2406/2410 3SM -SN BR SCT009 OVC015
     FM241400 02005KT 3SM -SN BR OVC015
      TEMPO 2415/2419 2SM -SN BR OVC009
     FM242000 33005KT 5SM -SN OVC025
     FM250200 VRB05KT P6SM VCSH SCT025 BKN040=



000
FTUS45 KABQ 240500
TAFLVS
TAF
KLVS 240540Z 2406/2506 01005KT P6SM SKC
     FM241500 06010KT P6SM BKN050
     FM242000 09008KT P6SM OVC040
     FM250000 12008KT 5SM -SN BKN015 OVC040
     FM250400 30005KT P6SM SCT050=



000
FTUS45 KABQ 240500
TAFFMN
TAF
KFMN 240540Z 2406/2506 10008KT P6SM VCSH BKN025 OVC050
      TEMPO 2406/2410 4SM -SN BR OVC019
     FM241500 09008KT P6SM VCSH OVC025
     FM242100 29010KT P6SM VCSH BKN030 OVC050
     FM250100 30008KT P6SM SCT050=



000
FTUS45 KABQ 240500
TAFSAF
TAF
KSAF 240540Z 2406/2506 01007KT P6SM SCT015 SCT070
     FM241600 10010KT P6SM VCSH BKN040
     FM241800 13015KT P6SM VCSH OVC035 PROB30 2419/2424 4SM -SN
      OVC025
     FM250300 33005KT P6SM BKN030=



000
FTUS45 KABQ 240500
TAFROW
TAF
KROW 240540Z 2406/2506 VRB03KT P6SM SCT015
     FM240800 17005KT P6SM OVC015
     FM241600 01008KT P6SM BKN030
     FM250100 33005KT P6SM VCSH OVC030=



000
FTUS45 KABQ 240500
TAFTCC
TAF
KTCC 240540Z 2406/2506 26005KT P6SM SCT020
     FM241500 02008KT P6SM BKN070
     FM241900 05011KT P6SM BKN060
     FM250000 02005KT P6SM VCSH BKN050
     FM250400 33005KT P6SM SCT050=



000
FTUS45 KABQ 232300 CCA
TAFFMN
TAF COR
KFMN 232349Z 2400/2424 11011KT 6SM -SHSN OVC025
      TEMPO 2400/2404 2SM -SN BR OVC019
     FM241500 09009KT P6SM VCSH OVC025
     FM242100 30010KT P6SM BKN050=



000
FTUS45 KABQ 232300 CCA
TAFTCC
TAF COR
KTCC 232349Z 2400/2424 20005KT P6SM BKN019 OVC035
     FM241400 31007KT P6SM BKN040
     FM241900 05011KT P6SM BKN060=



000
FTUS45 KABQ 232300
TAFTCC
TAF
KTCC 232340Z 2400/2424 20005KT P6SM OVC015
     FM241400 31007KT P6SM BKN040
     FM241900 05011KT P6SM BKN060=



000
FTUS45 KABQ 232300
TAFFMN
TAF
KFMN 232340Z 2400/2424 11011KT 6SM -SN OVC023
      TEMPO 2400/2404 4SM -SN BR OVC012
     FM241500 09009KT P6SM VCSH OVC025
     FM242100 30010KT P6SM BKN050=



000
FTUS45 KABQ 232300
TAFGUP
TAF
KGUP 232340Z 2400/2424 24022G32KT P6SM -SHRA BKN060
     FM240200 22009KT P6SM -SN OVC050
      TEMPO 2402/2406 4SM -SN OVC025
     FM240800 23006KT 2SM -SN OVC009
     FM241600 30007KT P6SM VCSH OVC025
     FM242100 36008KT 4SM -SN OVC018=



000
FTUS45 KABQ 232300
TAFSAF
TAF
KSAF 232340Z 2400/2424 15005KT P6SM OVC020
     FM240400 02007KT P6SM OVC020
     FM241600 12013KT P6SM VCSH OVC040 PROB30 2418/2424 4SM -SHSN
      OVC025=



000
FTUS45 KABQ 232300
TAFLVS
TAF
KLVS 232340Z 2400/2424 20012KT P6SM SCT030
     FM240200 20009KT P6SM OVC030
     FM241200 02006KT P6SM BKN050
     FM241600 06011KT P6SM BKN060=



000
FTUS45 KABQ 232300
TAFROW
TAF
KROW 232340Z 2400/2424 VRB03KT P6SM BKN025
     FM240700 18005KT P6SM OVC015
     FM241600 03006KT P6SM BKN025=



000
FTUS45 KABQ 232300
TAFABQ
TAF
KABQ 232340Z 2400/2424 35007KT P6SM OVC028
     FM241400 06008KT P6SM OVC035
     FM241730 08017G27KT P6SM VCSH OVC040=



    US Dept of Commerce
    National Oceanic and Atmospheric Administration
    National Weather Service
    1325 East West Highway
    Silver Spring, MD 20910
    Page Author: NWS Internet Services Team
Disclaimer
Information Quality
Credits
Glossary
Privacy Policy
Freedom of Information Act (FOIA)
About Us
Career Opportunities